createdAt,value
2022-12-23T00:02:06.727Z,38.78
2022-12-23T00:05:11.275Z,39.93
2022-12-23T00:08:13.950Z,41.42
2022-12-23T00:11:17.958Z,42.33
2022-12-23T00:14:37.562Z,41.37
2022-12-23T00:17:42.731Z,43.06
2022-12-23T00:20:46.761Z,43.24
2022-12-23T00:23:50.608Z,42.89
2022-12-23T00:26:53.382Z,42.58
2022-12-23T00:29:56.173Z,43.90
2022-12-23T00:32:58.917Z,43.85
2022-12-23T00:36:03.248Z,44.01
2022-12-23T00:39:23.526Z,44.39
2022-12-23T00:42:43.080Z,44.58
2022-12-23T00:45:45.902Z,44.61
2022-12-23T00:49:06.052Z,44.50
2022-12-23T00:52:11.650Z,45.22
2022-12-23T00:55:14.515Z,44.03
2022-12-23T00:58:17.596Z,45.04
2022-12-23T01:01:37.766Z,45.35
2022-12-23T01:04:58.011Z,45.18
2022-12-23T01:08:02.122Z,45.04
2022-12-23T01:11:05.215Z,45.24
2022-12-23T01:14:09.372Z,45.08
2022-12-23T01:17:12.206Z,45.10
2022-12-23T01:20:14.930Z,44.96
2022-12-23T01:23:18.994Z,44.36
2022-12-23T01:26:21.749Z,45.04
2022-12-23T01:29:24.791Z,44.54
2022-12-23T01:32:27.516Z,44.71
2022-12-23T01:35:30.318Z,44.99
2022-12-23T01:38:34.461Z,44.95
2022-12-23T01:41:54.759Z,44.92
2022-12-23T01:44:59.981Z,44.74
2022-12-23T01:48:05.110Z,45.06
2022-12-23T01:51:10.031Z,44.51
2022-12-23T01:54:14.119Z,44.58
2022-12-23T01:57:16.894Z,44.85
2022-12-23T02:00:37.191Z,44.72
2022-12-23T02:03:45.887Z,44.45
2022-12-23T02:07:07.965Z,44.54
2022-12-23T02:10:12.570Z,44.37
2022-12-23T02:13:17.330Z,44.25
2022-12-23T02:16:19.169Z,44.33
2022-12-23T02:19:33.506Z,44.11
2022-12-23T02:22:44.926Z,44.16
2022-12-23T02:25:56.008Z,44.10
2022-12-23T02:29:14.218Z,43.99
2022-12-23T02:32:22.455Z,44.15
2022-12-23T02:35:28.608Z,43.99
2022-12-23T02:38:33.751Z,43.93
2022-12-23T02:41:42.488Z,43.66
2022-12-23T02:44:46.903Z,43.98
2022-12-23T02:47:53.400Z,43.88
2022-12-23T02:50:57.956Z,44.07
2022-12-23T02:54:03.455Z,43.34
2022-12-23T02:57:08.027Z,43.63
2022-12-23T03:00:11.446Z,43.79
2022-12-23T03:03:17.463Z,44.09
2022-12-23T03:06:23.282Z,43.89
2022-12-23T03:09:31.428Z,43.33
2022-12-23T03:12:41.284Z,43.42
2022-12-23T03:15:48.132Z,42.84
2022-12-23T03:19:00.909Z,42.36
2022-12-23T03:22:09.371Z,42.32
2022-12-23T03:25:15.392Z,42.33
2022-12-23T03:28:20.523Z,42.08
2022-12-23T03:31:25.305Z,42.04
2022-12-23T03:34:31.852Z,42.21
2022-12-23T03:37:37.654Z,41.64
2022-12-23T03:40:42.743Z,41.99
2022-12-23T03:43:50.968Z,41.79
2022-12-23T03:47:03.853Z,41.74
2022-12-23T03:50:09.958Z,41.89
2022-12-23T03:53:16.743Z,41.55
2022-12-23T03:56:22.748Z,41.98
2022-12-23T03:59:27.457Z,41.86
2022-12-23T04:02:34.737Z,41.74
2022-12-23T04:05:40.727Z,41.43
2022-12-23T04:08:45.174Z,41.89
2022-12-23T04:11:48.936Z,41.81
2022-12-23T04:14:52.210Z,41.46
2022-12-23T04:17:56.062Z,41.66
2022-12-23T04:21:00.334Z,41.37
2022-12-23T04:24:03.097Z,41.25
2022-12-23T04:27:06.097Z,41.21
2022-12-23T04:30:11.027Z,41.25
2022-12-23T04:33:13.918Z,41.34
2022-12-23T04:36:18.156Z,41.31
2022-12-23T04:39:20.905Z,41.14
2022-12-23T04:42:23.739Z,41.31
2022-12-23T04:45:26.491Z,41.39
2022-12-23T04:48:29.286Z,41.15
2022-12-23T04:51:33.420Z,41.10
2022-12-23T04:54:40.551Z,41.08
2022-12-23T04:57:46.723Z,41.35
2022-12-23T05:00:49.600Z,40.97
2022-12-23T05:03:53.409Z,41.02
2022-12-23T05:06:57.476Z,41.25
2022-12-23T05:10:02.255Z,41.20
2022-12-23T05:13:05.151Z,40.84
2022-12-23T05:16:08.330Z,41.05
2022-12-23T05:19:11.393Z,40.81
2022-12-23T05:22:15.520Z,40.85
2022-12-23T05:25:18.371Z,40.80
2022-12-23T05:28:21.192Z,40.68
2022-12-23T05:31:24.008Z,40.69
2022-12-23T05:34:26.752Z,40.60
2022-12-23T05:37:30.888Z,40.75
2022-12-23T05:40:34.049Z,40.80
2022-12-23T05:43:36.953Z,40.67
2022-12-23T05:46:39.768Z,40.75
2022-12-23T05:49:42.552Z,40.69
2022-12-23T05:52:46.715Z,40.56
2022-12-23T05:55:49.452Z,40.87
2022-12-23T05:58:52.232Z,40.58
2022-12-23T06:01:55.119Z,40.72
2022-12-23T06:04:58.058Z,40.56
2022-12-23T06:08:02.274Z,40.69
2022-12-23T06:11:05.664Z,40.56
2022-12-23T06:14:08.448Z,40.74
2022-12-23T06:17:11.214Z,40.66
2022-12-23T06:20:20.368Z,40.65
2022-12-23T06:23:24.975Z,40.59
2022-12-23T06:26:27.777Z,40.44
2022-12-23T06:29:30.554Z,40.41
2022-12-23T06:32:38.227Z,40.32
2022-12-23T06:35:41.618Z,40.17
2022-12-23T06:38:45.752Z,40.27
2022-12-23T06:41:48.553Z,40.46
2022-12-23T06:44:51.335Z,40.49
2022-12-23T06:47:54.170Z,40.23
2022-12-23T06:50:56.938Z,40.22
2022-12-23T06:54:04.602Z,40.54
2022-12-23T06:57:07.354Z,40.69
2022-12-23T07:00:10.729Z,40.75
2022-12-23T07:03:13.612Z,40.68
2022-12-23T07:06:16.479Z,40.81
2022-12-23T07:09:20.647Z,40.63
2022-12-23T07:12:23.371Z,40.65
2022-12-23T07:15:26.150Z,40.87
2022-12-23T07:18:28.927Z,40.87
2022-12-23T07:21:31.731Z,40.73
2022-12-23T07:24:35.872Z,40.97
2022-12-23T07:27:38.647Z,40.82
2022-12-23T07:30:41.436Z,40.87
2022-12-23T07:33:44.685Z,40.91
2022-12-23T07:36:47.464Z,40.87
2022-12-23T07:39:51.812Z,41.11
2022-12-23T07:42:55.944Z,40.98
2022-12-23T07:46:00.681Z,41.01
2022-12-23T07:49:03.901Z,41.03
2022-12-23T07:52:06.672Z,40.95
2022-12-23T07:55:11.202Z,41.04
2022-12-23T07:58:13.995Z,41.12
2022-12-23T08:01:17.239Z,41.16
2022-12-23T08:04:20.017Z,41.12
2022-12-23T08:07:22.936Z,41.16
2022-12-23T08:10:27.137Z,41.23
2022-12-23T08:13:29.920Z,41.38
2022-12-23T08:16:37.891Z,41.21
2022-12-23T08:19:44.227Z,41.25
2022-12-23T08:22:47.055Z,41.15
2022-12-23T08:25:51.167Z,41.39
2022-12-23T08:28:54.034Z,41.36
2022-12-23T08:31:57.086Z,41.26
2022-12-23T08:34:59.814Z,41.22
2022-12-23T08:38:02.599Z,41.10
2022-12-23T08:41:09.348Z,40.89
2022-12-23T08:44:12.165Z,40.86
2022-12-23T08:47:14.966Z,40.46
2022-12-23T08:50:17.866Z,40.29
2022-12-23T08:53:20.627Z,40.15
2022-12-23T08:56:25.558Z,40.15
2022-12-23T08:59:28.328Z,40.12
2022-12-23T09:02:31.361Z,39.98
2022-12-23T09:05:34.549Z,40.03
2022-12-23T09:08:37.420Z,39.88
2022-12-23T09:11:41.864Z,39.65
2022-12-23T09:14:47.654Z,39.83
2022-12-23T09:17:50.359Z,39.76
2022-12-23T09:20:58.527Z,39.67
2022-12-23T09:24:01.327Z,39.73
2022-12-23T09:27:05.504Z,39.75
2022-12-23T09:30:08.698Z,39.57
2022-12-23T09:33:11.454Z,39.62
2022-12-23T09:36:15.264Z,39.65
2022-12-23T09:39:17.980Z,39.56
2022-12-23T09:42:29.790Z,39.50
2022-12-23T09:45:45.497Z,39.45
2022-12-23T09:48:55.801Z,39.59
2022-12-23T09:52:02.788Z,39.53
2022-12-23T09:55:05.784Z,39.54
2022-12-23T09:58:17.697Z,39.63
2022-12-23T10:01:25.677Z,39.41
2022-12-23T10:04:37.987Z,39.35
2022-12-23T10:07:45.000Z,39.51
2022-12-23T10:10:49.417Z,39.52
2022-12-23T10:13:55.274Z,39.39
2022-12-23T10:17:01.098Z,39.37
2022-12-23T10:20:05.644Z,39.34
2022-12-23T10:23:14.187Z,39.38
2022-12-23T10:26:23.745Z,39.32
2022-12-23T10:29:31.211Z,39.29
2022-12-23T10:32:42.663Z,39.23
2022-12-23T10:35:48.302Z,39.13
2022-12-23T10:38:55.012Z,39.21
2022-12-23T10:42:04.132Z,39.01
2022-12-23T10:45:16.221Z,39.30
2022-12-23T10:48:24.148Z,39.12
2022-12-23T10:51:30.174Z,39.25
2022-12-23T10:54:34.251Z,39.14
2022-12-23T10:57:37.183Z,39.14
2022-12-23T11:00:43.909Z,39.28
2022-12-23T11:03:51.137Z,39.27
2022-12-23T11:07:18.313Z,39.42
2022-12-23T11:10:19.532Z,39.25
2022-12-23T11:13:26.421Z,39.39
2022-12-23T11:16:30.614Z,39.56
2022-12-23T11:19:33.421Z,39.61
2022-12-23T11:22:36.189Z,39.72
2022-12-23T11:25:41.482Z,39.77
2022-12-23T11:28:49.400Z,39.98
2022-12-23T11:31:53.684Z,39.89
2022-12-23T11:34:57.166Z,39.80
2022-12-23T11:38:00.694Z,40.00
2022-12-23T11:41:04.325Z,40.07
2022-12-23T11:44:11.815Z,39.93
2022-12-23T11:47:35.450Z,40.05
2022-12-23T11:50:40.381Z,39.92
2022-12-23T11:53:44.318Z,40.21
2022-12-23T11:56:49.578Z,40.17
2022-12-23T11:59:57.921Z,40.16
2022-12-23T12:03:08.043Z,40.25
2022-12-23T12:06:14.895Z,40.23
2022-12-23T12:09:18.092Z,40.17
2022-12-23T12:12:22.076Z,40.29
2022-12-23T12:15:27.841Z,40.27
2022-12-23T12:18:30.938Z,40.38
2022-12-23T12:21:37.991Z,40.44
2022-12-23T12:24:43.029Z,40.46
2022-12-23T12:27:48.623Z,40.44
2022-12-23T12:30:55.006Z,40.45
2022-12-23T12:33:59.256Z,40.53
2022-12-23T12:37:07.995Z,40.53
2022-12-23T12:40:17.861Z,40.51
2022-12-23T12:43:25.276Z,40.63
2022-12-23T12:46:30.622Z,40.43
2022-12-23T12:49:37.037Z,40.64
2022-12-23T12:52:42.246Z,40.72
2022-12-23T12:55:48.425Z,40.59
2022-12-23T12:58:51.190Z,40.81
2022-12-23T13:02:00.607Z,40.95
2022-12-23T13:05:07.830Z,41.24
2022-12-23T13:08:22.239Z,41.41
2022-12-23T13:11:29.934Z,41.27
2022-12-23T13:14:37.955Z,40.98
2022-12-23T13:17:46.299Z,41.22
2022-12-23T13:20:53.483Z,41.24
2022-12-23T13:24:04.365Z,41.26
2022-12-23T13:27:09.055Z,41.16
2022-12-23T13:30:13.970Z,41.27
2022-12-23T13:33:24.933Z,41.27
2022-12-23T13:36:36.869Z,41.33
2022-12-23T13:39:47.256Z,41.27
2022-12-23T13:42:53.718Z,41.24
2022-12-23T13:45:57.136Z,41.52
2022-12-23T13:49:05.805Z,41.24
2022-12-23T13:52:11.250Z,41.26
2022-12-23T13:55:23.075Z,41.14
2022-12-23T13:58:27.233Z,41.33
2022-12-23T14:01:35.096Z,40.98
2022-12-23T14:04:38.733Z,41.39
2022-12-23T14:07:50.349Z,41.58
2022-12-23T14:10:56.043Z,42.03
2022-12-23T14:14:00.235Z,41.99
2022-12-23T14:17:07.201Z,41.68
2022-12-23T14:20:19.432Z,42.07
2022-12-23T14:23:34.943Z,41.84
2022-12-23T14:26:50.212Z,41.97
2022-12-23T14:30:05.781Z,41.93
2022-12-23T14:33:16.004Z,41.87
2022-12-23T14:36:23.860Z,41.73
2022-12-23T14:39:33.971Z,41.95
2022-12-23T14:42:41.715Z,41.70
2022-12-23T14:45:44.840Z,41.88
2022-12-23T14:52:59.188Z,41.67
2022-12-23T14:56:12.058Z,41.78
2022-12-23T14:59:18.738Z,41.67
2022-12-23T15:02:23.601Z,41.62
2022-12-23T15:05:26.500Z,41.59
2022-12-23T15:08:31.471Z,41.49
2022-12-23T15:11:35.423Z,41.49
2022-12-23T15:14:41.426Z,41.53
2022-12-23T15:17:44.463Z,41.25
2022-12-23T15:20:58.708Z,41.47
2022-12-23T15:24:01.595Z,41.53
2022-12-23T15:30:35.739Z,41.72
2022-12-23T15:37:02.514Z,41.62
2022-12-23T15:40:12.521Z,41.25
2022-12-23T15:43:23.888Z,41.64
2022-12-23T15:46:30.341Z,41.64
2022-12-23T15:49:33.597Z,41.77
2022-12-23T15:52:36.459Z,41.71
2022-12-23T15:55:40.676Z,41.79
2022-12-23T15:58:43.804Z,41.64
2022-12-23T16:01:48.103Z,41.76
2022-12-23T16:04:54.730Z,40.80
2022-12-23T16:08:09.590Z,41.17
2022-12-23T16:11:15.562Z,41.02
2022-12-23T16:14:24.567Z,41.01
2022-12-23T16:17:33.891Z,41.13
2022-12-23T16:20:41.043Z,40.89
2022-12-23T16:23:49.655Z,40.25
2022-12-23T16:26:52.472Z,40.30
2022-12-23T16:29:55.612Z,40.13
2022-12-23T16:33:02.281Z,40.05
2022-12-23T16:36:22.369Z,39.91
2022-12-23T16:39:25.208Z,39.88
2022-12-23T16:42:27.985Z,39.66
2022-12-23T16:45:32.983Z,40.26
2022-12-23T16:48:39.263Z,39.84
2022-12-23T16:51:42.203Z,39.92
2022-12-23T16:54:44.965Z,39.90
2022-12-23T16:57:47.731Z,39.91
2022-12-23T17:00:52.196Z,39.66
2022-12-23T17:03:57.192Z,39.63
2022-12-23T17:07:00.020Z,39.63
2022-12-23T17:10:02.786Z,39.72
2022-12-23T17:13:05.579Z,39.84
2022-12-23T17:16:09.516Z,39.64
2022-12-23T17:19:13.891Z,39.63
2022-12-23T17:22:16.679Z,39.59
2022-12-23T17:25:26.236Z,39.70
2022-12-23T17:28:30.874Z,39.67
2022-12-23T17:31:34.209Z,39.28
2022-12-23T17:34:38.458Z,39.97
2022-12-23T17:37:41.235Z,39.75
2022-12-23T17:40:45.762Z,39.67
2022-12-23T17:43:48.509Z,40.03
2022-12-23T17:46:51.389Z,40.14
2022-12-23T17:49:55.565Z,40.08
2022-12-23T17:52:58.408Z,40.22
2022-12-23T17:56:01.173Z,40.00
2022-12-23T17:59:03.968Z,39.81
2022-12-23T18:02:16.614Z,40.01
2022-12-23T18:05:22.522Z,40.14
2022-12-23T18:08:25.941Z,39.85
2022-12-23T18:11:32.290Z,39.96
2022-12-23T18:14:35.203Z,39.79
2022-12-23T18:17:37.969Z,39.85
2022-12-23T18:20:42.890Z,39.64
2022-12-23T18:23:45.602Z,39.79
2022-12-23T18:26:48.617Z,39.89
2022-12-23T18:29:52.054Z,39.64
2022-12-23T18:32:54.784Z,39.67
2022-12-23T18:35:59.032Z,39.88
2022-12-23T18:39:01.790Z,39.55
2022-12-23T18:42:04.835Z,39.89
2022-12-23T18:45:12.435Z,39.54
2022-12-23T18:48:15.207Z,39.70
2022-12-23T18:51:20.678Z,39.78
2022-12-23T18:54:23.437Z,39.47
2022-12-23T18:57:26.244Z,39.72
2022-12-23T19:00:29.982Z,39.89
2022-12-23T19:03:33.011Z,39.88
2022-12-23T19:06:38.671Z,40.08
2022-12-23T19:09:41.507Z,40.08
2022-12-23T19:12:44.256Z,40.45
2022-12-23T19:15:47.213Z,40.37
2022-12-23T19:18:51.762Z,40.21
2022-12-23T19:21:57.072Z,40.20
2022-12-23T19:25:05.968Z,40.19
2022-12-23T19:28:10.771Z,40.37
2022-12-23T19:31:15.732Z,40.50
2022-12-23T19:34:18.604Z,40.55
2022-12-23T19:37:22.763Z,40.77
2022-12-23T19:40:25.503Z,40.78
2022-12-23T19:43:28.385Z,40.78
2022-12-23T19:46:31.309Z,40.79
2022-12-23T19:49:34.496Z,40.80
2022-12-23T19:52:38.836Z,40.85
2022-12-23T19:55:41.588Z,40.86
2022-12-23T19:58:44.941Z,41.02
2022-12-23T20:01:48.101Z,41.04
2022-12-23T20:04:51.466Z,41.19
2022-12-23T20:07:55.670Z,41.10
2022-12-23T20:11:03.514Z,41.40
2022-12-23T20:14:07.423Z,41.35
2022-12-23T20:17:10.282Z,41.33
2022-12-23T20:20:13.253Z,41.22
2022-12-23T20:23:17.411Z,41.22
2022-12-23T20:26:20.554Z,41.25
2022-12-23T20:29:23.242Z,41.24
2022-12-23T20:32:25.996Z,41.17
2022-12-23T20:35:28.788Z,41.18
2022-12-23T20:38:34.544Z,41.22
2022-12-23T20:41:37.454Z,41.29
2022-12-23T20:44:40.517Z,41.34
2022-12-23T20:47:43.324Z,41.22
2022-12-23T20:50:46.110Z,40.92
2022-12-23T20:53:50.644Z,40.97
2022-12-23T20:56:53.404Z,40.80
2022-12-23T20:59:56.193Z,40.83
2022-12-23T21:02:58.961Z,40.78
2022-12-23T21:06:01.726Z,40.96
2022-12-23T21:09:07.164Z,40.55
2022-12-23T21:12:09.859Z,40.56
2022-12-23T21:15:12.682Z,40.53
2022-12-23T21:18:15.502Z,40.30
2022-12-23T21:21:18.297Z,40.14
2022-12-23T21:24:22.423Z,40.41
2022-12-23T21:27:25.225Z,40.24
2022-12-23T21:30:28.059Z,40.06
2022-12-23T21:33:30.868Z,40.08
2022-12-23T21:36:34.280Z,39.88
2022-12-23T21:39:38.453Z,40.06
2022-12-23T21:42:41.278Z,39.65
2022-12-23T21:45:44.764Z,39.96
2022-12-23T21:48:48.784Z,39.84
2022-12-23T21:51:51.644Z,40.23
2022-12-23T21:54:55.795Z,40.18
2022-12-23T21:57:58.534Z,40.37
2022-12-23T22:01:01.692Z,40.18
2022-12-23T22:04:04.667Z,40.21
2022-12-23T22:07:07.465Z,40.12
2022-12-23T22:10:12.314Z,40.01
2022-12-23T22:13:15.095Z,39.93
2022-12-23T22:16:19.101Z,39.82
2022-12-23T22:19:21.883Z,39.80
2022-12-23T22:22:24.587Z,39.69
2022-12-23T22:25:28.760Z,39.77
2022-12-23T22:28:32.060Z,39.92
2022-12-23T22:31:36.746Z,39.63
2022-12-23T22:34:39.515Z,39.59
2022-12-23T22:37:43.260Z,39.86
2022-12-23T22:40:50.460Z,39.55
2022-12-23T22:43:53.678Z,39.66
2022-12-23T22:46:56.697Z,39.57
2022-12-23T22:49:59.643Z,39.65
2022-12-23T22:53:02.392Z,39.55
2022-12-23T22:56:07.402Z,39.46
2022-12-23T22:59:14.961Z,39.61
2022-12-23T23:02:17.839Z,39.47
2022-12-23T23:05:21.851Z,39.78
2022-12-23T23:08:24.727Z,39.43
2022-12-23T23:11:28.977Z,39.45
2022-12-23T23:14:52.361Z,39.43
2022-12-23T23:17:56.580Z,39.42
2022-12-23T23:20:59.502Z,39.39
2022-12-23T23:24:02.314Z,39.39
2022-12-23T23:27:06.983Z,39.43
2022-12-23T23:30:10.546Z,39.31
2022-12-23T23:33:13.445Z,39.39
2022-12-23T23:36:16.325Z,39.35
2022-12-23T23:39:19.130Z,39.47
2022-12-23T23:42:24.792Z,39.39
2022-12-23T23:45:29.493Z,39.64
2022-12-23T23:48:33.004Z,39.55
2022-12-23T23:51:35.835Z,39.33
2022-12-23T23:54:39.185Z,39.31
2022-12-23T23:57:43.309Z,39.92
